createdAt,value
2019-02-22T00:02:38.100Z,8.60
2019-02-22T00:05:06.429Z,8.60
2019-02-22T00:07:34.063Z,8.60
2019-02-22T00:10:01.724Z,8.50
2019-02-22T00:12:29.427Z,8.60
2019-02-22T00:14:57.192Z,8.60
2019-02-22T00:17:24.816Z,8.60
2019-02-22T00:19:52.447Z,8.60
2019-02-22T00:22:20.156Z,8.60
2019-02-22T00:24:47.760Z,8.50
2019-02-22T00:27:15.403Z,8.50
2019-02-22T00:29:43.035Z,8.50
2019-02-22T00:32:10.702Z,8.60
2019-02-22T00:34:38.354Z,8.50
2019-02-22T00:37:05.985Z,8.50
2019-02-22T00:39:33.616Z,8.60
2019-02-22T00:42:01.235Z,8.60
2019-02-22T00:44:28.900Z,8.50
2019-02-22T00:46:56.543Z,8.50
2019-02-22T00:49:24.244Z,8.50
2019-02-22T00:51:51.872Z,8.50
2019-02-22T00:54:19.552Z,8.50
2019-02-22T00:56:47.215Z,8.50
2019-02-22T00:59:14.888Z,8.50
2019-02-22T01:01:42.500Z,8.50
2019-02-22T01:04:10.292Z,8.50
2019-02-22T01:06:37.905Z,8.50
2019-02-22T01:09:05.649Z,8.50
2019-02-22T01:11:33.384Z,8.50
2019-02-22T01:14:01.005Z,8.50
2019-02-22T01:16:28.681Z,8.40
2019-02-22T01:18:56.319Z,8.50
2019-02-22T01:21:23.976Z,8.50
2019-02-22T01:23:51.603Z,8.50
2019-02-22T01:26:19.263Z,8.50
2019-02-22T01:28:46.924Z,8.50
2019-02-22T01:31:14.555Z,8.50
2019-02-22T01:33:42.224Z,8.50
2019-02-22T01:36:09.853Z,8.50
2019-02-22T01:38:37.564Z,8.50
2019-02-22T01:41:05.180Z,8.50
2019-02-22T01:43:33.502Z,8.50
2019-02-22T01:46:01.232Z,8.50
2019-02-22T01:48:28.883Z,8.50
2019-02-22T01:50:56.519Z,8.50
2019-02-22T01:53:24.128Z,8.50
2019-02-22T01:55:51.828Z,8.50
2019-02-22T01:58:19.441Z,8.50
2019-02-22T02:00:47.111Z,8.50
2019-02-22T02:03:14.745Z,8.50
2019-02-22T02:05:42.450Z,8.50
2019-02-22T02:08:10.104Z,8.50
2019-02-22T02:10:37.833Z,8.50
2019-02-22T02:13:05.517Z,8.50
2019-02-22T02:15:33.163Z,8.50
2019-02-22T02:18:00.798Z,8.50
2019-02-22T02:20:28.471Z,8.50
2019-02-22T02:22:56.095Z,8.50
2019-02-22T02:25:23.696Z,8.50
2019-02-22T02:27:51.351Z,8.40
2019-02-22T02:30:19.118Z,8.40
2019-02-22T02:32:46.763Z,8.40
2019-02-22T02:35:14.396Z,8.40
2019-02-22T02:37:42.101Z,8.40
2019-02-22T02:40:09.848Z,8.40
2019-02-22T02:42:37.463Z,8.40
2019-02-22T02:45:05.446Z,8.40
2019-02-22T02:47:33.080Z,8.40
2019-02-22T02:50:00.675Z,8.40
2019-02-22T02:52:28.445Z,8.40
2019-02-22T02:54:56.101Z,8.40
2019-02-22T02:57:23.762Z,8.40
2019-02-22T02:59:51.364Z,8.40
2019-02-22T03:02:29.127Z,8.30
2019-02-22T03:04:56.781Z,8.40
2019-02-22T03:07:58.835Z,8.30
2019-02-22T03:10:26.473Z,8.30
2019-02-22T03:12:54.154Z,8.30
2019-02-22T03:15:21.784Z,8.30
2019-02-22T03:17:49.388Z,8.30
2019-02-22T03:20:17.119Z,8.30
2019-02-22T03:22:44.751Z,8.30
2019-02-22T03:25:12.461Z,8.30
2019-02-22T03:27:40.112Z,8.30
2019-02-22T03:30:07.871Z,8.30
2019-02-22T03:32:35.515Z,8.30
2019-02-22T03:35:03.213Z,8.30
2019-02-22T03:37:30.844Z,8.20
2019-02-22T03:39:58.446Z,8.30
2019-02-22T03:42:26.234Z,8.20
2019-02-22T03:44:53.833Z,8.30
2019-02-22T03:47:21.470Z,8.30
2019-02-22T03:49:49.148Z,8.30
2019-02-22T03:52:23.635Z,8.30
2019-02-22T03:54:51.287Z,8.30
2019-02-22T03:57:18.888Z,8.30
2019-02-22T03:59:46.545Z,8.30
2019-02-22T04:02:14.143Z,8.30
2019-02-22T04:04:41.918Z,8.30
2019-02-22T04:07:09.565Z,8.20
2019-02-22T04:09:37.204Z,8.30
2019-02-22T04:12:04.854Z,8.30
2019-02-22T04:14:32.499Z,8.30
2019-02-22T04:17:00.118Z,8.30
2019-02-22T04:19:27.744Z,8.30
2019-02-22T04:21:55.366Z,8.30
2019-02-22T04:24:23.020Z,8.30
2019-02-22T04:26:50.673Z,8.30
2019-02-22T04:29:18.296Z,8.30
2019-02-22T04:31:45.965Z,8.30
2019-02-22T04:34:13.609Z,8.30
2019-02-22T04:36:41.237Z,8.30
2019-02-22T04:39:08.874Z,8.30
2019-02-22T04:41:36.533Z,8.30
2019-02-22T04:44:04.184Z,8.30
2019-02-22T04:46:31.772Z,8.30
2019-02-22T04:48:59.463Z,8.30
2019-02-22T04:51:27.064Z,8.30
2019-02-22T04:53:54.721Z,8.30
2019-02-22T04:56:22.319Z,8.30
2019-02-22T04:58:50.000Z,8.30
2019-02-22T05:01:17.628Z,8.30
2019-02-22T05:03:45.318Z,8.30
2019-02-22T05:06:12.971Z,8.30
2019-02-22T05:08:40.575Z,8.30
2019-02-22T05:11:08.246Z,8.30
2019-02-22T05:13:35.897Z,8.30
2019-02-22T05:16:03.539Z,8.30
2019-02-22T05:18:31.168Z,8.30
2019-02-22T05:20:58.820Z,8.20
2019-02-22T05:23:26.725Z,8.20
2019-02-22T05:25:54.394Z,8.20
2019-02-22T05:28:22.036Z,8.20
2019-02-22T05:30:49.692Z,8.20
2019-02-22T05:33:17.332Z,8.20
2019-02-22T05:35:44.974Z,8.20
2019-02-22T05:38:12.622Z,8.20
2019-02-22T05:40:40.248Z,8.20
2019-02-22T05:43:07.885Z,8.20
2019-02-22T05:45:35.504Z,8.20
2019-02-22T05:48:03.174Z,8.20
2019-02-22T05:50:30.800Z,8.20
2019-02-22T05:52:58.479Z,8.30
2019-02-22T05:55:26.109Z,8.30
2019-02-22T05:57:53.751Z,8.20
2019-02-22T06:00:21.364Z,8.20
2019-02-22T06:02:48.980Z,8.30
2019-02-22T06:05:16.662Z,8.30
2019-02-22T06:07:44.263Z,8.30
2019-02-22T06:10:11.939Z,8.30
2019-02-22T06:12:39.618Z,8.30
2019-02-22T06:15:07.249Z,8.20
2019-02-22T06:17:34.982Z,8.20
2019-02-22T06:20:02.680Z,8.30
2019-02-22T06:22:30.303Z,8.20
2019-02-22T06:24:57.930Z,8.20
2019-02-22T06:27:25.635Z,8.30
2019-02-22T06:29:53.252Z,8.30
2019-02-22T06:32:20.874Z,8.30
2019-02-22T06:34:48.545Z,8.30
2019-02-22T06:37:16.254Z,8.30
2019-02-22T06:39:43.972Z,8.30
2019-02-22T06:42:11.621Z,8.30
2019-02-22T06:44:39.252Z,8.30
2019-02-22T06:47:06.930Z,8.30
2019-02-22T06:49:34.579Z,8.30
2019-02-22T06:52:02.312Z,8.30
2019-02-22T06:54:29.941Z,8.30
2019-02-22T06:56:57.611Z,8.30
2019-02-22T06:59:25.260Z,8.40
2019-02-22T07:01:53.044Z,8.40
2019-02-22T07:04:20.675Z,8.40
2019-02-22T07:06:48.288Z,8.40
2019-02-22T07:09:15.963Z,8.30
2019-02-22T07:12:03.104Z,8.30
2019-02-22T07:14:30.785Z,8.30
2019-02-22T07:16:58.427Z,8.30
2019-02-22T07:19:26.020Z,8.30
2019-02-22T07:21:53.668Z,8.30
2019-02-22T07:24:21.283Z,8.20
2019-02-22T07:26:48.913Z,8.20
2019-02-22T07:29:16.553Z,8.20
2019-02-22T07:31:44.246Z,8.20
2019-02-22T07:34:11.856Z,8.20
2019-02-22T07:36:39.523Z,8.20
2019-02-22T07:39:07.243Z,8.20
2019-02-22T07:41:34.890Z,8.10
2019-02-22T07:44:02.559Z,8.10
2019-02-22T07:46:30.250Z,8.10
2019-02-22T07:48:57.885Z,8.10
2019-02-22T07:51:25.505Z,8.10
2019-02-22T07:53:53.512Z,8.10
2019-02-22T07:56:21.127Z,8.10
2019-02-22T07:58:48.775Z,8.00
2019-02-22T08:01:16.380Z,8.00
2019-02-22T08:03:44.046Z,8.00
2019-02-22T08:06:11.734Z,8.00
2019-02-22T08:08:39.355Z,7.90
2019-02-22T08:11:07.000Z,8.00
2019-02-22T08:13:34.720Z,8.00
2019-02-22T08:16:02.355Z,8.00
2019-02-22T08:18:29.971Z,8.00
2019-02-22T08:20:57.631Z,8.00
2019-02-22T08:23:25.245Z,8.00
2019-02-22T08:25:52.940Z,8.00
2019-02-22T08:28:20.524Z,8.00
2019-02-22T08:30:48.147Z,8.10
2019-02-22T08:33:15.809Z,8.10
2019-02-22T08:35:43.441Z,8.20
2019-02-22T08:38:11.096Z,8.30
2019-02-22T08:40:38.755Z,8.30
2019-02-22T08:43:06.411Z,8.40
2019-02-22T08:45:34.079Z,8.50
2019-02-22T08:48:01.703Z,8.50
2019-02-22T08:50:29.377Z,8.50
2019-02-22T08:52:57.070Z,8.60
2019-02-22T08:55:24.739Z,8.60
2019-02-22T08:57:52.381Z,8.70
2019-02-22T09:00:20.162Z,8.80
2019-02-22T09:02:48.125Z,8.80
2019-02-22T09:05:15.747Z,8.90
2019-02-22T09:07:43.376Z,8.90
2019-02-22T09:10:11.038Z,8.90
2019-02-22T09:12:38.648Z,9.00
2019-02-22T09:15:06.741Z,9.10
2019-02-22T09:17:34.338Z,9.20
2019-02-22T09:20:02.134Z,9.20
2019-02-22T09:22:29.753Z,9.30
2019-02-22T09:24:57.479Z,9.20
2019-02-22T09:27:25.152Z,9.30
2019-02-22T09:29:58.971Z,9.40
2019-02-22T09:32:22.198Z,9.40
2019-02-22T09:34:49.818Z,9.40
2019-02-22T09:37:17.500Z,9.40
2019-02-22T09:39:45.185Z,9.40
2019-02-22T09:42:12.792Z,9.50
2019-02-22T09:44:40.415Z,9.50
2019-02-22T09:47:08.139Z,9.60
2019-02-22T09:49:35.830Z,9.80
2019-02-22T09:52:03.588Z,9.90
2019-02-22T09:54:31.242Z,10.00
2019-02-22T09:57:01.920Z,10.00
2019-02-22T09:59:29.375Z,10.00
2019-02-22T10:01:57.026Z,10.00
2019-02-22T10:04:24.667Z,10.00
2019-02-22T10:06:52.315Z,10.10
2019-02-22T10:09:19.949Z,10.20
2019-02-22T10:11:47.575Z,10.20
2019-02-22T10:14:15.254Z,10.20
2019-02-22T10:16:42.875Z,10.20
2019-02-22T10:19:10.522Z,10.20
2019-02-22T10:21:38.157Z,10.20
2019-02-22T10:24:05.805Z,10.30
2019-02-22T10:26:33.509Z,10.20
2019-02-22T10:29:01.101Z,10.20
2019-02-22T10:31:28.788Z,10.30
2019-02-22T10:33:56.436Z,10.30
2019-02-22T10:36:24.161Z,10.30
2019-02-22T10:38:51.811Z,10.20
2019-02-22T10:41:19.435Z,10.20
2019-02-22T10:43:47.117Z,10.20
2019-02-22T10:46:14.737Z,10.10
2019-02-22T10:48:42.388Z,10.00
2019-02-22T10:51:10.038Z,9.90
2019-02-22T10:53:37.680Z,9.90
2019-02-22T10:56:06.342Z,9.80
2019-02-22T10:58:34.396Z,9.70
2019-02-22T11:01:02.018Z,9.70
2019-02-22T11:03:29.651Z,9.60
2019-02-22T11:05:57.293Z,9.50
2019-02-22T11:08:24.931Z,9.50
2019-02-22T11:10:52.521Z,9.50
2019-02-22T11:13:21.382Z,9.40
2019-02-22T11:15:49.202Z,9.30
2019-02-22T11:18:16.828Z,9.40
2019-02-22T11:20:44.467Z,9.30
2019-02-22T11:23:12.112Z,9.40
2019-02-22T11:25:39.753Z,9.40
2019-02-22T11:28:07.460Z,9.40
2019-02-22T11:30:35.133Z,9.50
2019-02-22T11:33:02.838Z,9.50
2019-02-22T11:35:30.449Z,9.60
2019-02-22T11:37:58.130Z,9.60
2019-02-22T11:40:25.763Z,9.60
2019-02-22T11:42:53.544Z,9.60
2019-02-22T11:45:21.472Z,9.70
2019-02-22T11:47:49.034Z,9.60
2019-02-22T11:50:16.668Z,9.70
2019-02-22T11:52:44.354Z,9.60
2019-02-22T11:55:12.113Z,9.60
2019-02-22T11:57:39.721Z,9.70
2019-02-22T12:00:09.422Z,9.80
2019-02-22T12:02:37.076Z,9.90
2019-02-22T12:05:04.937Z,10.00
2019-02-22T12:07:32.619Z,10.00
2019-02-22T12:10:01.387Z,10.10
2019-02-22T12:12:29.035Z,10.30
2019-02-22T12:14:56.678Z,10.30
2019-02-22T12:17:24.413Z,10.30
2019-02-22T12:19:52.467Z,10.10
2019-02-22T12:22:20.071Z,10.10
2019-02-22T12:24:47.711Z,10.00
2019-02-22T12:27:15.385Z,10.00
2019-02-22T12:29:43.030Z,9.90
2019-02-22T12:32:10.690Z,9.90
2019-02-22T12:34:38.355Z,9.80
2019-02-22T12:37:06.114Z,9.80
2019-02-22T12:39:33.749Z,9.80
2019-02-22T12:42:01.413Z,9.70
2019-02-22T12:44:29.051Z,9.60
2019-02-22T12:46:56.812Z,9.60
2019-02-22T12:49:24.458Z,9.60
2019-02-22T12:51:52.082Z,9.60
2019-02-22T12:54:19.748Z,9.60
2019-02-22T12:56:57.566Z,9.50
2019-02-22T12:59:16.820Z,9.60
2019-02-22T13:01:44.528Z,9.50
2019-02-22T13:04:12.165Z,9.50
2019-02-22T13:06:39.847Z,9.50
2019-02-22T13:09:08.692Z,9.30
2019-02-22T13:11:36.308Z,9.10
2019-02-22T13:14:03.976Z,8.90
2019-02-22T13:16:31.646Z,8.80
2019-02-22T13:18:59.311Z,8.60
2019-02-22T13:21:26.950Z,8.50
2019-02-22T13:23:57.176Z,8.50
2019-02-22T13:26:24.038Z,8.40
2019-02-22T13:28:51.732Z,8.20
2019-02-22T13:31:29.401Z,8.10
2019-02-22T13:33:48.794Z,8.10
2019-02-22T13:36:16.420Z,8.10
2019-02-22T13:38:44.031Z,8.00
2019-02-22T13:41:11.810Z,8.00
2019-02-22T13:43:39.463Z,8.00
2019-02-22T13:46:07.064Z,7.90
2019-02-22T13:48:34.869Z,7.90
2019-02-22T13:51:02.466Z,7.80
2019-02-22T13:53:30.133Z,7.80
2019-02-22T13:55:57.790Z,7.90
2019-02-22T13:58:25.467Z,7.90
2019-02-22T14:00:53.085Z,7.90
2019-02-22T14:03:20.692Z,7.80
2019-02-22T14:05:48.331Z,7.80
2019-02-22T14:08:16.045Z,7.80
2019-02-22T14:10:43.753Z,7.70
2019-02-22T14:13:11.434Z,7.70
2019-02-22T14:15:39.129Z,7.60
2019-02-22T14:18:06.758Z,7.70
2019-02-22T14:20:34.442Z,7.50
2019-02-22T14:23:03.646Z,7.60
2019-02-22T14:25:31.479Z,7.60
2019-02-22T14:27:59.137Z,7.40
2019-02-22T14:30:26.772Z,7.40
2019-02-22T14:32:54.426Z,7.50
2019-02-22T14:35:22.039Z,7.40
2019-02-22T14:37:49.733Z,7.40
2019-02-22T14:40:17.352Z,7.40
2019-02-22T14:42:45.052Z,7.40
2019-02-22T14:45:12.788Z,7.30
2019-02-22T14:47:40.415Z,7.30
2019-02-22T14:50:10.639Z,7.30
2019-02-22T14:52:38.251Z,7.30
2019-02-22T14:55:06.467Z,7.20
2019-02-22T14:57:34.236Z,7.20
2019-02-22T15:00:01.900Z,7.20
2019-02-22T15:02:29.525Z,7.20
2019-02-22T15:04:57.220Z,7.00
2019-02-22T15:07:24.843Z,7.00
2019-02-22T15:09:52.453Z,6.90
2019-02-22T15:12:20.193Z,6.80
2019-02-22T15:14:47.820Z,6.80
2019-02-22T15:17:27.231Z,6.80
2019-02-22T15:19:54.040Z,6.70
2019-02-22T15:22:21.887Z,6.70
2019-02-22T15:24:49.516Z,6.70
2019-02-22T15:27:17.162Z,6.60
2019-02-22T15:29:44.825Z,6.50
2019-02-22T15:32:12.561Z,6.40
2019-02-22T15:34:40.320Z,6.30
2019-02-22T15:37:08.064Z,6.30
2019-02-22T15:39:35.720Z,6.30
2019-02-22T15:42:03.339Z,6.20
2019-02-22T15:44:31.299Z,6.20
2019-02-22T15:46:58.921Z,6.10
2019-02-22T15:49:26.619Z,6.10
2019-02-22T15:51:54.188Z,6.10
2019-02-22T15:54:21.813Z,6.00
2019-02-22T15:56:49.626Z,6.00
2019-02-22T15:59:17.291Z,6.00
2019-02-22T16:01:54.963Z,5.90
2019-02-22T16:04:33.859Z,5.90
2019-02-22T16:07:01.515Z,5.80
2019-02-22T16:09:29.126Z,5.70
2019-02-22T16:11:56.882Z,5.70
2019-02-22T16:14:24.540Z,5.60
2019-02-22T16:16:52.227Z,5.60
2019-02-22T16:19:19.928Z,5.50
2019-02-22T16:21:47.559Z,5.40
2019-02-22T16:24:15.179Z,5.30
2019-02-22T16:26:42.864Z,5.20
2019-02-22T16:29:10.471Z,5.10
2019-02-22T16:31:38.159Z,4.90
2019-02-22T16:34:05.760Z,4.90
2019-02-22T16:36:33.892Z,4.80
2019-02-22T16:39:01.519Z,4.70
2019-02-22T16:41:29.173Z,4.70
2019-02-22T16:43:56.807Z,4.60
2019-02-22T16:46:34.581Z,4.50
2019-02-22T16:48:53.891Z,4.50
2019-02-22T16:51:21.494Z,4.40
2019-02-22T16:53:51.448Z,4.30
2019-02-22T16:56:19.088Z,4.30
2019-02-22T16:58:46.720Z,4.20
2019-02-22T17:01:14.357Z,4.10
2019-02-22T17:03:42.012Z,4.10
2019-02-22T17:06:09.652Z,4.00
2019-02-22T17:08:37.283Z,4.00
2019-02-22T17:11:04.927Z,4.00
2019-02-22T17:13:32.713Z,3.90
2019-02-22T17:16:00.395Z,3.90
2019-02-22T17:18:28.022Z,3.90
2019-02-22T17:20:55.680Z,3.90
2019-02-22T17:23:23.341Z,3.90
2019-02-22T17:25:51.000Z,3.90
2019-02-22T17:28:18.647Z,3.90
2019-02-22T17:30:46.319Z,3.90
2019-02-22T17:33:13.968Z,3.80
2019-02-22T17:35:41.690Z,3.80
2019-02-22T17:38:09.305Z,3.80
2019-02-22T17:40:36.957Z,3.80
2019-02-22T17:43:04.650Z,3.80
2019-02-22T17:45:32.340Z,3.80
2019-02-22T17:47:59.973Z,3.80
2019-02-22T17:50:27.616Z,3.70
2019-02-22T17:52:55.482Z,3.80
2019-02-22T17:55:23.194Z,3.80
2019-02-22T17:57:50.851Z,3.80
2019-02-22T18:00:19.560Z,3.80
2019-02-22T18:02:47.369Z,3.90
2019-02-22T18:05:14.998Z,3.90
2019-02-22T18:07:42.642Z,3.90
2019-02-22T18:10:10.307Z,3.90
2019-02-22T18:12:37.953Z,3.90
2019-02-22T18:15:06.188Z,3.90
2019-02-22T18:17:33.863Z,3.90
2019-02-22T18:20:01.575Z,4.00
2019-02-22T18:22:29.218Z,4.00
2019-02-22T18:24:56.914Z,4.00
2019-02-22T18:27:24.528Z,4.10
2019-02-22T18:29:52.236Z,4.10
2019-02-22T18:32:19.883Z,4.10
2019-02-22T18:34:47.631Z,4.10
2019-02-22T18:37:15.315Z,4.10
2019-02-22T18:39:42.955Z,4.20
2019-02-22T18:42:10.645Z,4.20
2019-02-22T18:44:38.288Z,4.20
2019-02-22T18:47:05.976Z,4.20
2019-02-22T18:49:33.648Z,4.20
2019-02-22T18:52:01.300Z,4.10
2019-02-22T18:54:29.012Z,4.20
2019-02-22T18:56:56.716Z,4.20
2019-02-22T18:59:24.369Z,4.20
2019-02-22T19:01:52.025Z,4.20
2019-02-22T19:04:19.751Z,4.10
2019-02-22T19:06:47.400Z,4.10
2019-02-22T19:09:15.100Z,4.10
2019-02-22T19:11:42.804Z,4.00
2019-02-22T19:14:10.467Z,4.00
2019-02-22T19:16:38.177Z,4.00
2019-02-22T19:19:06.303Z,4.00
2019-02-22T19:21:33.981Z,4.00
2019-02-22T19:24:01.632Z,3.90
2019-02-22T19:26:29.277Z,3.90
2019-02-22T19:28:57.128Z,3.90
2019-02-22T19:31:24.773Z,4.00
2019-02-22T19:33:52.457Z,4.00
2019-02-22T19:36:20.083Z,3.90
2019-02-22T19:38:47.775Z,3.90
2019-02-22T19:41:15.404Z,3.90
2019-02-22T19:43:43.095Z,3.80
2019-02-22T19:46:10.737Z,3.80
2019-02-22T19:48:38.582Z,3.80
2019-02-22T19:51:06.366Z,3.80
2019-02-22T19:53:33.987Z,3.80
2019-02-22T19:56:01.661Z,3.70
2019-02-22T19:58:29.400Z,3.80
2019-02-22T20:00:57.201Z,3.70
2019-02-22T20:03:24.850Z,3.80
2019-02-22T20:05:52.511Z,3.80
2019-02-22T20:08:20.134Z,3.70
2019-02-22T20:10:48.078Z,3.70
2019-02-22T20:13:15.855Z,3.60
2019-02-22T20:15:43.499Z,3.60
2019-02-22T20:18:11.255Z,3.50
2019-02-22T20:20:38.891Z,3.40
2019-02-22T20:23:06.592Z,3.40
2019-02-22T20:25:34.270Z,3.30
2019-02-22T20:28:02.033Z,3.30
2019-02-22T20:30:29.713Z,3.30
2019-02-22T20:32:58.268Z,3.30
2019-02-22T20:35:26.024Z,3.30
2019-02-22T20:37:53.738Z,3.20
2019-02-22T20:40:21.550Z,3.20
2019-02-22T20:42:49.202Z,3.20
2019-02-22T20:45:16.831Z,3.20
2019-02-22T20:47:44.496Z,3.10
2019-02-22T20:50:12.193Z,3.10
2019-02-22T20:52:39.822Z,3.10
2019-02-22T20:55:07.798Z,3.00
2019-02-22T20:57:35.449Z,3.00
2019-02-22T21:00:03.596Z,3.00
2019-02-22T21:02:31.277Z,2.90
2019-02-22T21:04:58.937Z,2.80
2019-02-22T21:07:26.607Z,2.80
2019-02-22T21:09:54.282Z,2.80
2019-02-22T21:12:21.932Z,2.80
2019-02-22T21:14:49.600Z,2.70
2019-02-22T21:17:17.383Z,2.70
2019-02-22T21:19:45.004Z,2.70
2019-02-22T21:22:12.705Z,2.60
2019-02-22T21:24:40.315Z,2.60
2019-02-22T21:27:08.032Z,2.60
2019-02-22T21:29:35.687Z,2.60
2019-02-22T21:32:03.327Z,2.50
2019-02-22T21:34:30.984Z,2.50
2019-02-22T21:36:58.671Z,2.50
2019-02-22T21:39:26.357Z,2.50
2019-02-22T21:41:53.977Z,2.40
2019-02-22T21:44:21.615Z,2.40
2019-02-22T21:46:49.232Z,2.30
2019-02-22T21:49:16.872Z,2.30
2019-02-22T21:51:44.558Z,2.30
2019-02-22T21:54:12.224Z,2.30
2019-02-22T21:56:39.889Z,2.30
2019-02-22T21:59:07.499Z,2.30
2019-02-22T22:01:35.185Z,2.30
2019-02-22T22:04:02.809Z,2.30
2019-02-22T22:06:30.458Z,2.30
2019-02-22T22:08:58.128Z,2.40
2019-02-22T22:11:25.812Z,2.40
2019-02-22T22:13:53.468Z,2.40
2019-02-22T22:16:21.113Z,2.50
2019-02-22T22:18:48.794Z,2.60
2019-02-22T22:21:16.463Z,2.60
2019-02-22T22:23:44.149Z,2.60
2019-02-22T22:26:11.816Z,2.70
2019-02-22T22:28:39.468Z,2.70
2019-02-22T22:31:07.167Z,2.80
2019-02-22T22:33:34.908Z,2.80
2019-02-22T22:36:02.561Z,2.80
2019-02-22T22:38:30.227Z,2.80
2019-02-22T22:40:57.919Z,2.90
2019-02-22T22:43:25.591Z,2.90
2019-02-22T22:45:53.248Z,3.00
2019-02-22T22:48:20.924Z,3.00
2019-02-22T22:50:48.551Z,3.10
2019-02-22T22:53:16.234Z,3.10
2019-02-22T22:55:43.977Z,3.10
2019-02-22T22:58:11.607Z,3.10
2019-02-22T23:01:01.580Z,3.20
2019-02-22T23:03:29.195Z,3.20
2019-02-22T23:05:56.839Z,3.20
2019-02-22T23:08:24.489Z,3.30
2019-02-22T23:10:52.164Z,3.20
2019-02-22T23:13:19.865Z,3.30
2019-02-22T23:15:47.485Z,3.30
2019-02-22T23:18:15.163Z,3.30
2019-02-22T23:20:42.852Z,3.40
2019-02-22T23:23:10.556Z,3.50
2019-02-22T23:25:38.202Z,3.50
2019-02-22T23:28:05.840Z,3.50
2019-02-22T23:30:33.487Z,3.60
2019-02-22T23:33:01.157Z,3.60
2019-02-22T23:35:28.876Z,3.60
2019-02-22T23:37:56.580Z,3.70
2019-02-22T23:40:24.260Z,3.70
2019-02-22T23:42:51.977Z,3.70
2019-02-22T23:45:19.697Z,3.70
2019-02-22T23:47:47.415Z,3.70
2019-02-22T23:50:15.103Z,3.70
2019-02-22T23:52:42.754Z,3.70
2019-02-22T23:55:10.414Z,3.60
2019-02-22T23:57:38.071Z,3.60
